createdAt,value
2022-11-04T00:00:29.910Z,10.70
2022-11-04T00:05:28.511Z,10.40
2022-11-04T00:08:14.935Z,10.40
2022-11-04T00:11:00.043Z,10.30
2022-11-04T00:13:29.743Z,10.30
2022-11-04T00:16:19.243Z,10.30
2022-11-04T00:18:47.055Z,10.30
2022-11-04T00:21:31.688Z,10.20
2022-11-04T00:24:18.166Z,10.20
2022-11-04T00:27:03.297Z,10.20
2022-11-04T00:29:31.106Z,10.20
2022-11-04T00:32:15.648Z,10.30
2022-11-04T00:34:43.486Z,10.30
2022-11-04T00:52:01.453Z,10.00
2022-11-04T00:54:29.291Z,10.20
2022-11-04T00:59:27.070Z,10.00
2022-11-04T01:01:54.957Z,9.90
2022-11-04T01:21:47.095Z,9.90
2022-11-04T01:24:14.901Z,9.70
2022-11-04T01:26:42.786Z,9.80
2022-11-04T01:29:10.604Z,9.80
2022-11-04T01:31:38.440Z,10.00
2022-11-04T01:34:06.248Z,9.90
2022-11-04T01:36:34.122Z,9.90
2022-11-04T01:39:03.294Z,9.80
2022-11-04T01:41:31.975Z,9.80
2022-11-04T01:44:00.551Z,9.80
2022-11-04T01:46:36.685Z,9.80
2022-11-04T01:49:06.751Z,9.80
2022-11-04T01:51:35.824Z,9.80
2022-11-04T01:54:06.290Z,9.80
2022-11-04T01:56:34.280Z,9.80
2022-11-04T01:59:04.270Z,9.70
2022-11-04T02:01:32.620Z,9.80
2022-11-04T02:04:22.001Z,9.70
2022-11-04T02:06:50.940Z,9.90
2022-11-04T02:12:07.059Z,9.80
2022-11-04T02:14:35.893Z,10.00
2022-11-04T02:17:07.444Z,9.70
2022-11-04T02:19:44.521Z,9.70
2022-11-04T02:22:26.231Z,9.70
2022-11-04T02:25:11.989Z,9.70
2022-11-04T02:27:49.831Z,9.60
2022-11-04T02:30:19.514Z,8.90
2022-11-04T02:32:53.957Z,9.70
2022-11-04T02:35:23.309Z,9.60
2022-11-04T02:37:55.325Z,9.60
2022-11-04T02:40:28.399Z,9.50
2022-11-04T02:42:59.179Z,9.50
2022-11-04T03:02:54.096Z,9.50
2022-11-04T03:05:24.149Z,9.50
2022-11-04T03:07:52.760Z,9.50
2022-11-04T03:10:24.405Z,9.50
2022-11-04T03:12:55.347Z,9.50
2022-11-04T03:15:25.940Z,9.50
2022-11-04T03:17:59.397Z,9.50
2022-11-04T03:20:28.521Z,9.40
2022-11-04T03:22:59.853Z,9.70
2022-11-04T03:25:29.404Z,9.50
2022-11-04T03:28:01.998Z,9.60
2022-11-04T03:30:34.333Z,9.70
2022-11-04T03:33:06.815Z,9.50
2022-11-04T03:35:34.835Z,9.80
2022-11-04T03:38:03.043Z,9.60
2022-11-04T03:40:30.938Z,9.80
2022-11-04T03:43:00.888Z,9.60
2022-11-04T03:45:28.828Z,9.80
2022-11-04T03:47:57.174Z,9.80
2022-11-04T03:50:28.381Z,9.50
2022-11-04T03:52:56.755Z,9.50
2022-11-04T03:57:55.078Z,9.70
2022-11-04T04:00:23.683Z,9.70
2022-11-04T04:02:57.204Z,9.50
2022-11-04T04:05:28.275Z,9.70
2022-11-04T04:07:59.197Z,9.60
2022-11-04T04:10:41.855Z,9.70
2022-11-04T04:13:19.522Z,9.60
2022-11-04T04:15:50.686Z,9.70
2022-11-04T04:18:21.021Z,9.70
2022-11-04T04:20:50.607Z,9.70
2022-11-04T04:23:37.205Z,9.70
2022-11-04T04:26:24.654Z,9.90
2022-11-04T04:28:53.308Z,9.90
2022-11-04T04:31:35.594Z,9.90
2022-11-04T04:34:03.821Z,10.00
2022-11-04T04:36:35.197Z,9.90
2022-11-04T04:39:22.536Z,9.60
2022-11-04T04:42:07.774Z,9.90
2022-11-04T04:44:53.391Z,9.80
2022-11-04T04:47:23.377Z,9.80
2022-11-04T04:49:51.397Z,9.70
2022-11-04T04:52:20.930Z,9.60
2022-11-04T04:54:48.757Z,9.60
2022-11-04T04:57:16.556Z,9.60
2022-11-04T04:59:44.396Z,9.40
2022-11-04T05:02:12.323Z,9.50
2022-11-04T05:04:40.256Z,9.50
2022-11-04T05:07:08.148Z,9.50
2022-11-04T05:09:37.314Z,9.80
2022-11-04T05:12:05.393Z,9.70
2022-11-04T05:14:33.263Z,9.50
2022-11-04T05:17:01.092Z,9.60
2022-11-04T05:19:28.979Z,9.60
2022-11-04T05:21:56.821Z,9.70
2022-11-04T05:24:24.666Z,9.70
2022-11-04T05:26:53.872Z,9.70
2022-11-04T05:29:21.663Z,9.70
2022-11-04T05:31:49.507Z,9.80
2022-11-04T05:34:17.419Z,9.80
2022-11-04T05:36:45.259Z,9.90
2022-11-04T05:39:14.181Z,9.90
2022-11-04T05:41:41.998Z,9.90
2022-11-04T05:44:11.865Z,10.30
2022-11-04T05:46:39.680Z,10.10
2022-11-04T05:49:07.475Z,10.10
2022-11-04T05:51:35.263Z,10.30
2022-11-04T05:54:03.039Z,10.00
2022-11-04T05:56:30.869Z,10.30
2022-11-04T05:58:58.640Z,9.40
2022-11-04T06:01:32.375Z,10.30
2022-11-04T06:04:00.901Z,10.30
2022-11-04T06:06:30.647Z,10.40
2022-11-04T06:08:58.880Z,10.30
2022-11-04T06:11:27.675Z,10.20
2022-11-04T06:13:55.954Z,10.20
2022-11-04T06:16:24.239Z,10.20
2022-11-04T06:18:53.763Z,10.30
2022-11-04T06:21:25.303Z,10.30
2022-11-04T06:23:54.060Z,10.30
2022-11-04T06:26:25.381Z,10.30
2022-11-04T06:28:55.893Z,10.30
2022-11-04T06:31:23.710Z,10.30
2022-11-04T06:33:52.944Z,10.30
2022-11-04T06:36:20.799Z,10.40
2022-11-04T06:38:48.651Z,10.40
2022-11-04T06:41:17.859Z,10.40
2022-11-04T06:43:45.835Z,10.40
2022-11-04T06:46:27.002Z,10.60
2022-11-04T06:48:56.199Z,10.70
2022-11-04T06:51:24.047Z,10.40
2022-11-04T06:53:51.843Z,10.40
2022-11-04T06:56:19.683Z,10.40
2022-11-04T06:58:48.808Z,10.40
2022-11-04T07:01:21.568Z,10.30
2022-11-04T07:03:50.250Z,10.40
2022-11-04T07:06:20.072Z,10.40
2022-11-04T07:08:48.116Z,10.40
2022-11-04T07:11:16.415Z,10.40
2022-11-04T07:13:44.229Z,10.50
2022-11-04T07:16:12.093Z,10.50
2022-11-04T07:18:39.933Z,10.50
2022-11-04T07:21:10.163Z,10.50
2022-11-04T07:23:39.988Z,10.50
2022-11-04T07:26:08.598Z,10.80
2022-11-04T07:28:36.723Z,10.80
2022-11-04T07:31:05.495Z,10.70
2022-11-04T07:33:33.873Z,10.70
2022-11-04T07:36:04.942Z,10.70
2022-11-04T07:38:32.972Z,10.60
2022-11-04T07:41:02.561Z,10.70
2022-11-04T07:43:32.803Z,10.70
2022-11-04T07:48:28.923Z,10.90
2022-11-04T07:50:57.497Z,11.30
2022-11-04T07:53:25.310Z,11.10
2022-11-04T07:55:53.224Z,11.20
2022-11-04T07:58:22.501Z,11.30
2022-11-04T08:00:51.184Z,11.30
2022-11-04T08:03:19.127Z,11.50
2022-11-04T08:05:47.025Z,11.50
2022-11-04T08:10:43.003Z,11.70
2022-11-04T08:13:11.196Z,11.60
2022-11-04T08:18:12.843Z,11.90
2022-11-04T08:20:47.752Z,12.00
2022-11-04T08:23:15.561Z,11.90
2022-11-04T08:28:13.233Z,11.60
2022-11-04T08:30:41.130Z,11.90
2022-11-04T08:33:09.170Z,12.00
2022-11-04T08:40:38.759Z,12.40
2022-11-04T08:43:06.818Z,12.50
2022-11-04T08:45:34.865Z,12.50
2022-11-04T08:48:05.461Z,12.60
2022-11-04T08:50:33.772Z,13.00
2022-11-04T08:53:01.630Z,13.10
2022-11-04T08:55:29.694Z,13.50
2022-11-04T09:00:29.564Z,14.50
2022-11-04T09:02:57.375Z,15.10
2022-11-04T09:05:25.211Z,15.30
2022-11-04T09:07:53.157Z,15.20
2022-11-04T09:10:21.008Z,15.20
2022-11-04T09:12:48.946Z,15.20
2022-11-04T09:17:46.293Z,15.20
2022-11-04T09:20:14.134Z,15.20
2022-11-04T09:22:45.735Z,15.30
2022-11-04T09:25:14.057Z,15.10
2022-11-04T09:27:41.888Z,15.00
2022-11-04T09:30:10.449Z,15.00
2022-11-04T09:32:38.295Z,15.00
2022-11-04T09:35:07.715Z,15.30
2022-11-04T09:37:35.712Z,14.90
2022-11-04T09:40:03.632Z,15.00
2022-11-04T09:42:43.255Z,14.90
2022-11-04T09:45:23.933Z,14.90
2022-11-04T09:47:53.601Z,14.80
2022-11-04T09:50:25.381Z,14.60
2022-11-04T09:52:56.391Z,14.40
2022-11-04T09:55:27.169Z,14.20
2022-11-04T09:57:56.232Z,14.20
2022-11-04T10:00:24.436Z,14.20
2022-11-04T10:03:03.306Z,14.30
2022-11-04T10:05:39.869Z,14.30
2022-11-04T10:08:16.214Z,14.30
2022-11-04T10:10:48.024Z,14.30
2022-11-04T10:13:21.314Z,14.30
2022-11-04T10:15:55.366Z,14.30
2022-11-04T10:18:30.633Z,14.30
2022-11-04T10:21:06.439Z,14.30
2022-11-04T10:23:35.690Z,14.30
2022-11-04T10:26:06.557Z,14.20
2022-11-04T10:28:36.436Z,14.20
2022-11-04T10:31:04.601Z,14.20
2022-11-04T10:33:34.589Z,14.20
2022-11-04T10:36:04.939Z,14.30
2022-11-04T10:38:35.071Z,14.20
2022-11-04T10:41:07.045Z,14.10
2022-11-04T10:43:36.911Z,14.10
2022-11-04T10:46:10.307Z,14.10
2022-11-04T10:48:41.827Z,14.20
2022-11-04T10:51:10.991Z,14.20
2022-11-04T10:53:38.838Z,14.20
2022-11-04T10:56:11.400Z,14.20
2022-11-04T10:58:43.852Z,14.30
2022-11-04T11:01:23.959Z,14.40
2022-11-04T11:03:51.872Z,14.20
2022-11-04T11:06:25.882Z,14.20
2022-11-04T11:08:55.316Z,14.40
2022-11-04T11:11:36.583Z,14.40
2022-11-04T11:14:04.386Z,14.40
2022-11-04T11:16:32.435Z,14.40
2022-11-04T11:19:09.812Z,14.40
2022-11-04T11:21:43.927Z,14.40
2022-11-04T11:24:16.910Z,14.40
2022-11-04T11:26:48.940Z,14.40
2022-11-04T11:29:22.497Z,14.40
2022-11-04T11:31:51.904Z,14.50
2022-11-04T11:34:22.316Z,14.50
2022-11-04T11:36:51.658Z,14.60
2022-11-04T11:39:22.010Z,14.60
2022-11-04T11:41:53.477Z,14.70
2022-11-04T11:44:24.242Z,14.80
2022-11-04T11:46:54.703Z,14.80
2022-11-04T11:49:24.799Z,14.80
2022-11-04T11:51:54.031Z,14.80
2022-11-04T11:54:29.661Z,15.00
2022-11-04T11:57:15.229Z,15.40
2022-11-04T12:02:41.020Z,16.10
2022-11-04T12:10:52.402Z,17.00
2022-11-04T12:13:26.514Z,17.00
2022-11-04T12:16:06.449Z,17.00
2022-11-04T12:18:49.131Z,16.90
2022-11-04T12:21:20.900Z,17.20
2022-11-04T12:23:52.153Z,17.30
2022-11-04T12:26:26.841Z,17.10
2022-11-04T12:29:00.555Z,16.80
2022-11-04T12:31:33.561Z,16.70
2022-11-04T12:34:07.400Z,16.80
2022-11-04T12:36:43.940Z,17.10
2022-11-04T12:39:18.698Z,17.90
2022-11-04T12:44:47.492Z,18.80
2022-11-04T12:47:20.792Z,19.40
2022-11-04T12:49:56.425Z,19.70
2022-11-04T12:52:33.323Z,20.20
2022-11-04T12:55:07.281Z,20.80
2022-11-04T12:57:43.543Z,21.00
2022-11-04T13:00:12.494Z,21.10
2022-11-04T13:02:43.905Z,21.30
2022-11-04T13:05:19.627Z,21.30
2022-11-04T13:07:51.156Z,21.50
2022-11-04T13:10:22.459Z,20.40
2022-11-04T13:12:54.156Z,20.40
2022-11-04T13:15:23.765Z,20.40
2022-11-04T13:17:54.625Z,20.20
2022-11-04T13:22:52.614Z,19.80
2022-11-04T13:25:24.167Z,19.00
2022-11-04T13:27:53.677Z,19.50
2022-11-04T13:30:23.056Z,19.00
2022-11-04T13:32:54.654Z,18.80
2022-11-04T13:35:25.789Z,18.70
2022-11-04T13:37:56.783Z,18.60
2022-11-04T13:40:27.554Z,18.60
2022-11-04T13:43:30.215Z,18.50
2022-11-04T13:45:59.723Z,18.20
2022-11-04T13:48:30.120Z,18.00
2022-11-04T13:51:00.300Z,17.90
2022-11-04T13:53:45.915Z,17.70
2022-11-04T13:56:33.332Z,17.70
2022-11-04T13:59:04.301Z,17.60
2022-11-04T14:01:34.166Z,17.40
2022-11-04T14:04:20.963Z,17.30
2022-11-04T14:06:56.185Z,17.00
2022-11-04T14:09:25.185Z,17.00
2022-11-04T14:12:07.875Z,16.90
2022-11-04T14:14:36.981Z,16.80
2022-11-04T14:17:08.127Z,16.60
2022-11-04T14:19:59.426Z,16.50
2022-11-04T14:22:34.735Z,16.40
2022-11-04T14:25:03.491Z,16.20
2022-11-04T14:27:39.700Z,16.00
2022-11-04T14:30:08.573Z,15.90
2022-11-04T14:32:40.674Z,15.90
2022-11-04T14:35:09.378Z,15.80
2022-11-04T14:37:38.180Z,15.90
2022-11-04T14:40:07.411Z,15.90
2022-11-04T14:42:46.304Z,15.80
2022-11-04T14:45:17.241Z,15.60
2022-11-04T14:47:47.811Z,15.50
2022-11-04T14:52:47.441Z,15.30
2022-11-04T14:57:44.586Z,15.20
2022-11-04T15:00:27.779Z,15.30
2022-11-04T15:03:06.453Z,15.30
2022-11-04T15:05:36.467Z,15.50
2022-11-04T15:08:05.010Z,15.40
2022-11-04T15:10:32.859Z,15.20
2022-11-04T15:15:34.110Z,14.90
2022-11-04T15:18:03.452Z,14.90
2022-11-04T15:20:33.045Z,14.80
2022-11-04T15:23:02.650Z,14.80
2022-11-04T15:25:30.747Z,14.80
2022-11-04T15:27:58.651Z,14.60
2022-11-04T15:30:27.541Z,14.60
2022-11-04T15:32:58.455Z,14.40
2022-11-04T15:35:26.593Z,14.40
2022-11-04T15:37:57.130Z,14.20
2022-11-04T15:40:25.808Z,14.20
2022-11-04T15:42:53.942Z,14.00
2022-11-04T15:45:27.516Z,14.00
2022-11-04T15:48:13.974Z,13.90
2022-11-04T15:50:43.014Z,13.80
2022-11-04T15:55:42.799Z,13.70
2022-11-04T15:58:13.064Z,13.60
2022-11-04T16:00:41.006Z,13.60
2022-11-04T16:03:18.620Z,13.40
2022-11-04T16:06:00.754Z,13.30
2022-11-04T16:08:29.849Z,13.40
2022-11-04T16:11:11.224Z,13.30
2022-11-04T16:13:39.185Z,13.20
2022-11-04T16:16:09.709Z,13.10
2022-11-04T16:18:38.964Z,13.10
2022-11-04T16:21:07.710Z,13.20
2022-11-04T16:23:38.105Z,13.20
2022-11-04T16:26:07.081Z,13.20
2022-11-04T16:28:37.741Z,13.10
2022-11-04T16:31:06.811Z,13.10
2022-11-04T16:33:34.637Z,13.10
2022-11-04T16:36:02.457Z,13.10
2022-11-04T16:38:30.252Z,13.10
2022-11-04T16:40:58.170Z,13.10
2022-11-04T16:43:26.035Z,13.00
2022-11-04T16:45:55.235Z,13.00
2022-11-04T16:48:24.658Z,13.00
2022-11-04T16:50:52.537Z,12.80
2022-11-04T16:53:20.343Z,12.80
2022-11-04T16:55:48.241Z,12.80
2022-11-04T16:58:18.358Z,12.80
2022-11-04T17:00:46.610Z,12.80
2022-11-04T17:03:21.596Z,12.80
2022-11-04T17:05:49.735Z,12.70
2022-11-04T17:08:17.586Z,12.70
2022-11-04T17:10:45.517Z,12.70
2022-11-04T17:13:13.658Z,12.70
2022-11-04T17:15:41.614Z,12.60
2022-11-04T17:18:10.781Z,12.60
2022-11-04T17:20:40.666Z,12.50
2022-11-04T17:23:08.663Z,12.50
2022-11-04T17:25:36.666Z,12.50
2022-11-04T17:28:04.487Z,12.40
2022-11-04T17:30:32.736Z,12.30
2022-11-04T17:33:01.090Z,12.20
2022-11-04T17:35:29.011Z,12.20
2022-11-04T17:37:58.146Z,12.30
2022-11-04T17:40:26.025Z,12.20
2022-11-04T17:43:12.526Z,12.30
2022-11-04T17:45:41.170Z,12.10
2022-11-04T17:48:10.218Z,12.10
2022-11-04T17:50:39.719Z,12.00
2022-11-04T17:53:09.286Z,11.90
2022-11-04T17:55:38.284Z,11.70
2022-11-04T17:58:06.126Z,11.90
2022-11-04T18:00:33.938Z,11.60
2022-11-04T18:03:01.777Z,11.50
2022-11-04T18:05:29.597Z,11.50
2022-11-04T18:07:58.527Z,11.40
2022-11-04T18:10:27.689Z,11.30
2022-11-04T18:12:54.526Z,11.30
2022-11-04T18:15:22.335Z,11.30
2022-11-04T18:17:52.665Z,11.30
2022-11-04T18:25:21.243Z,11.00
2022-11-04T18:27:50.444Z,11.10
2022-11-04T18:30:18.846Z,11.10
2022-11-04T18:32:46.664Z,10.90
2022-11-04T18:35:14.496Z,10.90
2022-11-04T18:37:47.038Z,10.80
2022-11-04T18:40:15.406Z,10.80
2022-11-04T18:42:43.261Z,10.80
2022-11-04T18:45:12.660Z,10.50
2022-11-04T18:47:40.541Z,10.50
2022-11-04T18:50:08.583Z,10.50
2022-11-04T18:52:36.410Z,10.30
2022-11-04T18:55:04.239Z,10.40
2022-11-04T18:57:32.042Z,10.20
2022-11-04T18:59:59.869Z,10.50
2022-11-04T19:02:29.233Z,10.30
2022-11-04T19:04:57.150Z,10.30
2022-11-04T19:07:25.032Z,10.20
2022-11-04T19:09:54.590Z,10.20
2022-11-04T19:12:51.399Z,10.10
2022-11-04T19:15:19.567Z,9.90
2022-11-04T19:17:48.823Z,9.60
2022-11-04T19:20:16.895Z,10.10
2022-11-04T19:22:44.738Z,10.00
2022-11-04T19:25:12.541Z,9.80
2022-11-04T19:27:40.362Z,9.80
2022-11-04T19:30:08.799Z,9.60
2022-11-04T19:32:36.584Z,9.70
2022-11-04T19:35:06.094Z,9.60
2022-11-04T19:37:34.018Z,9.70
2022-11-04T19:40:01.838Z,9.50
2022-11-04T19:42:46.849Z,9.60
2022-11-04T19:45:14.712Z,9.70
2022-11-04T19:47:42.548Z,9.70
2022-11-04T19:50:12.712Z,9.50
2022-11-04T19:52:40.528Z,9.50
2022-11-04T19:55:08.753Z,9.50
2022-11-04T19:57:36.633Z,9.50
2022-11-04T20:00:04.896Z,9.60
2022-11-04T20:02:32.774Z,9.50
2022-11-04T20:05:00.715Z,9.50
2022-11-04T20:07:29.941Z,9.60
2022-11-04T20:09:58.226Z,9.50
2022-11-04T20:12:43.467Z,9.50
2022-11-04T20:15:11.806Z,9.40
2022-11-04T20:17:39.703Z,9.30
2022-11-04T20:20:08.129Z,9.30
2022-11-04T20:22:37.332Z,9.10
2022-11-04T20:25:05.387Z,9.20
2022-11-04T20:27:33.195Z,9.10
2022-11-04T20:30:01.019Z,9.10
2022-11-04T20:32:28.830Z,9.20
2022-11-04T20:34:56.659Z,9.20
2022-11-04T20:37:25.656Z,9.30
2022-11-04T20:39:54.915Z,9.10
2022-11-04T20:42:22.801Z,9.00
2022-11-04T20:44:50.772Z,9.10
2022-11-04T20:47:18.612Z,9.50
2022-11-04T20:49:47.044Z,9.10
2022-11-04T20:52:15.565Z,9.40
2022-11-04T20:54:43.406Z,9.30
2022-11-04T20:57:12.580Z,9.40
2022-11-04T20:59:40.423Z,9.20
2022-11-04T21:02:08.766Z,9.30
2022-11-04T21:04:36.761Z,9.20
2022-11-04T21:07:04.834Z,9.30
2022-11-04T21:09:32.711Z,9.30
2022-11-04T21:12:00.520Z,9.40
2022-11-04T21:14:31.791Z,9.40
2022-11-04T21:16:59.622Z,9.30
2022-11-04T21:19:27.425Z,9.40
2022-11-04T21:21:55.267Z,9.50
2022-11-04T21:24:23.086Z,9.30
2022-11-04T21:26:51.212Z,9.40
2022-11-04T21:34:16.726Z,9.30
2022-11-04T21:36:45.613Z,9.20
2022-11-04T21:39:13.438Z,9.20
2022-11-04T21:41:41.279Z,9.20
2022-11-04T21:44:09.599Z,9.30
2022-11-04T21:46:37.791Z,9.20
2022-11-04T21:49:05.778Z,9.20
2022-11-04T21:51:35.404Z,9.20
2022-11-04T21:54:05.945Z,9.20
2022-11-04T21:56:34.061Z,9.10
2022-11-04T21:59:02.271Z,9.10
2022-11-04T22:01:31.135Z,9.20
2022-11-04T22:04:00.279Z,9.30
2022-11-04T22:06:33.535Z,9.20
2022-11-04T22:09:04.650Z,9.20
2022-11-04T22:11:33.469Z,9.00
2022-11-04T22:14:02.116Z,9.10
2022-11-04T22:16:30.838Z,9.10
2022-11-04T22:19:00.318Z,8.50
2022-11-04T22:58:36.955Z,8.90
2022-11-04T23:01:06.742Z,9.10
2022-11-04T23:03:34.657Z,8.70
2022-11-04T23:06:03.092Z,8.60
2022-11-04T23:08:31.444Z,8.60
2022-11-04T23:11:17.808Z,8.60
2022-11-04T23:14:08.341Z,8.50
2022-11-04T23:16:53.452Z,8.40
2022-11-04T23:22:07.621Z,8.40
2022-11-04T23:24:52.670Z,8.40
2022-11-04T23:27:34.500Z,8.40
2022-11-04T23:30:22.103Z,8.30
2022-11-04T23:32:50.374Z,8.30
2022-11-04T23:35:36.505Z,8.30
2022-11-04T23:38:04.524Z,8.30
2022-11-04T23:40:32.904Z,8.20
2022-11-04T23:42:59.747Z,8.20
2022-11-04T23:45:46.657Z,8.20
2022-11-04T23:48:32.241Z,8.10
2022-11-04T23:51:18.985Z,8.10
2022-11-04T23:54:04.684Z,8.10
2022-11-04T23:56:50.302Z,8.10
2022-11-04T23:59:36.651Z,8.10
